sensor_id;sensor_type;location;lat;lon;timestamp;P1;durP1;ratioP1;P2;durP2;ratioP2
11125;SDS011;5617;54.046;10.676;2023-05-29T00:01:21;7.37;;;1.97;;
11125;SDS011;5617;54.046;10.676;2023-05-29T00:03:31;8.33;;;1.93;;
11125;SDS011;5617;54.046;10.676;2023-05-29T00:05:39;7.37;;;2.10;;
11125;SDS011;5617;54.046;10.676;2023-05-29T00:07:48;10.30;;;1.80;;
11125;SDS011;5617;54.046;10.676;2023-05-29T00:09:56;6.83;;;2.10;;
11125;SDS011;5617;54.046;10.676;2023-05-29T00:12:04;6.37;;;1.93;;
11125;SDS011;5617;54.046;10.676;2023-05-29T00:14:13;7.07;;;2.00;;
11125;SDS011;5617;54.046;10.676;2023-05-29T00:16:21;7.13;;;1.80;;
11125;SDS011;5617;54.046;10.676;2023-05-29T00:18:29;7.03;;;1.80;;
11125;SDS011;5617;54.046;10.676;2023-05-29T00:20:38;5.73;;;1.70;;
11125;SDS011;5617;54.046;10.676;2023-05-29T00:22:46;5.90;;;2.00;;
11125;SDS011;5617;54.046;10.676;2023-05-29T00:24:56;9.20;;;1.93;;
11125;SDS011;5617;54.046;10.676;2023-05-29T00:27:04;6.90;;;1.97;;
11125;SDS011;5617;54.046;10.676;2023-05-29T00:29:11;10.10;;;2.27;;
11125;SDS011;5617;54.046;10.676;2023-05-29T00:31:20;8.47;;;1.97;;
11125;SDS011;5617;54.046;10.676;2023-05-29T00:33:28;7.93;;;2.33;;
11125;SDS011;5617;54.046;10.676;2023-05-29T00:35:36;6.33;;;2.03;;
11125;SDS011;5617;54.046;10.676;2023-05-29T00:37:45;8.97;;;1.80;;
11125;SDS011;5617;54.046;10.676;2023-05-29T00:39:54;9.57;;;1.97;;
11125;SDS011;5617;54.046;10.676;2023-05-29T00:42:03;7.83;;;1.97;;
11125;SDS011;5617;54.046;10.676;2023-05-29T00:44:11;5.47;;;1.67;;
11125;SDS011;5617;54.046;10.676;2023-05-29T00:46:19;6.30;;;1.97;;
11125;SDS011;5617;54.046;10.676;2023-05-29T00:48:27;9.77;;;2.30;;
11125;SDS011;5617;54.046;10.676;2023-05-29T00:50:35;7.23;;;1.87;;
11125;SDS011;5617;54.046;10.676;2023-05-29T00:52:45;10.60;;;2.20;;
11125;SDS011;5617;54.046;10.676;2023-05-29T00:54:54;6.40;;;1.80;;
11125;SDS011;5617;54.046;10.676;2023-05-29T00:57:02;11.67;;;2.50;;
11125;SDS011;5617;54.046;10.676;2023-05-29T00:59:12;7.50;;;2.20;;
11125;SDS011;5617;54.046;10.676;2023-05-29T01:01:20;5.20;;;2.00;;
11125;SDS011;5617;54.046;10.676;2023-05-29T01:03:29;7.10;;;2.00;;
11125;SDS011;5617;54.046;10.676;2023-05-29T01:05:43;7.33;;;2.03;;
11125;SDS011;5617;54.046;10.676;2023-05-29T01:07:51;7.90;;;2.10;;
11125;SDS011;5617;54.046;10.676;2023-05-29T01:10:00;8.10;;;1.83;;
11125;SDS011;5617;54.046;10.676;2023-05-29T01:12:10;9.03;;;2.03;;
11125;SDS011;5617;54.046;10.676;2023-05-29T01:14:25;8.10;;;2.10;;
11125;SDS011;5617;54.046;10.676;2023-05-29T01:16:42;9.77;;;2.03;;
11125;SDS011;5617;54.046;10.676;2023-05-29T01:18:57;10.30;;;2.00;;
11125;SDS011;5617;54.046;10.676;2023-05-29T01:21:14;6.57;;;1.70;;
11125;SDS011;5617;54.046;10.676;2023-05-29T01:26:39;8.70;;;1.80;;
11125;SDS011;5617;54.046;10.676;2023-05-29T01:28:52;8.00;;;2.00;;
11125;SDS011;5617;54.046;10.676;2023-05-29T01:31:05;9.07;;;1.90;;
11125;SDS011;5617;54.046;10.676;2023-05-29T01:33:15;10.40;;;2.10;;
11125;SDS011;5617;54.046;10.676;2023-05-29T01:35:23;7.17;;;2.27;;
11125;SDS011;5617;54.046;10.676;2023-05-29T01:37:37;5.93;;;2.03;;
11125;SDS011;5617;54.046;10.676;2023-05-29T01:39:47;9.60;;;2.00;;
11125;SDS011;5617;54.046;10.676;2023-05-29T01:41:59;7.80;;;2.10;;
11125;SDS011;5617;54.046;10.676;2023-05-29T01:44:10;8.37;;;1.97;;
11125;SDS011;5617;54.046;10.676;2023-05-29T01:46:19;11.17;;;2.20;;
11125;SDS011;5617;54.046;10.676;2023-05-29T01:48:31;6.23;;;1.93;;
11125;SDS011;5617;54.046;10.676;2023-05-29T01:50:39;6.53;;;2.10;;
11125;SDS011;5617;54.046;10.676;2023-05-29T01:52:50;7.07;;;2.43;;
11125;SDS011;5617;54.046;10.676;2023-05-29T01:55:01;9.67;;;2.20;;
11125;SDS011;5617;54.046;10.676;2023-05-29T01:57:14;9.43;;;2.23;;
11125;SDS011;5617;54.046;10.676;2023-05-29T01:59:26;6.90;;;1.90;;
11125;SDS011;5617;54.046;10.676;2023-05-29T02:01:35;10.33;;;2.27;;
11125;SDS011;5617;54.046;10.676;2023-05-29T02:03:48;8.73;;;2.17;;
11125;SDS011;5617;54.046;10.676;2023-05-29T02:05:58;8.73;;;2.20;;
11125;SDS011;5617;54.046;10.676;2023-05-29T02:08:07;6.57;;;2.10;;
11125;SDS011;5617;54.046;10.676;2023-05-29T02:10:15;8.70;;;2.00;;
11125;SDS011;5617;54.046;10.676;2023-05-29T02:12:24;7.17;;;2.00;;
11125;SDS011;5617;54.046;10.676;2023-05-29T02:14:32;10.20;;;2.27;;
11125;SDS011;5617;54.046;10.676;2023-05-29T02:16:40;8.20;;;1.83;;
11125;SDS011;5617;54.046;10.676;2023-05-29T02:18:50;8.33;;;2.23;;
11125;SDS011;5617;54.046;10.676;2023-05-29T02:20:58;8.57;;;2.17;;
11125;SDS011;5617;54.046;10.676;2023-05-29T02:23:06;10.00;;;2.37;;
11125;SDS011;5617;54.046;10.676;2023-05-29T02:25:14;9.67;;;2.23;;
11125;SDS011;5617;54.046;10.676;2023-05-29T02:27:22;9.30;;;2.33;;
11125;SDS011;5617;54.046;10.676;2023-05-29T02:29:32;10.33;;;2.10;;
11125;SDS011;5617;54.046;10.676;2023-05-29T02:31:39;11.03;;;2.57;;
11125;SDS011;5617;54.046;10.676;2023-05-29T02:33:47;9.40;;;2.00;;
11125;SDS011;5617;54.046;10.676;2023-05-29T02:35:55;8.60;;;2.13;;
11125;SDS011;5617;54.046;10.676;2023-05-29T02:38:03;10.13;;;1.97;;
11125;SDS011;5617;54.046;10.676;2023-05-29T02:40:11;8.30;;;2.03;;
11125;SDS011;5617;54.046;10.676;2023-05-29T02:42:19;9.53;;;2.33;;
11125;SDS011;5617;54.046;10.676;2023-05-29T02:44:27;9.53;;;2.30;;
11125;SDS011;5617;54.046;10.676;2023-05-29T02:46:35;9.47;;;2.00;;
11125;SDS011;5617;54.046;10.676;2023-05-29T02:48:43;9.90;;;2.03;;
11125;SDS011;5617;54.046;10.676;2023-05-29T02:50:51;8.37;;;2.30;;
11125;SDS011;5617;54.046;10.676;2023-05-29T02:52:58;10.83;;;2.40;;
11125;SDS011;5617;54.046;10.676;2023-05-29T02:55:06;9.63;;;2.33;;
11125;SDS011;5617;54.046;10.676;2023-05-29T02:57:14;11.17;;;2.30;;
11125;SDS011;5617;54.046;10.676;2023-05-29T02:59:22;12.90;;;2.20;;
11125;SDS011;5617;54.046;10.676;2023-05-29T03:01:29;10.40;;;2.20;;
11125;SDS011;5617;54.046;10.676;2023-05-29T03:03:40;7.67;;;2.40;;
11125;SDS011;5617;54.046;10.676;2023-05-29T03:05:47;10.00;;;2.50;;
11125;SDS011;5617;54.046;10.676;2023-05-29T03:07:55;14.67;;;2.63;;
11125;SDS011;5617;54.046;10.676;2023-05-29T03:10:03;7.67;;;2.20;;
11125;SDS011;5617;54.046;10.676;2023-05-29T03:12:10;11.93;;;2.83;;
11125;SDS011;5617;54.046;10.676;2023-05-29T03:14:18;10.47;;;2.23;;
11125;SDS011;5617;54.046;10.676;2023-05-29T03:16:27;15.00;;;2.50;;
11125;SDS011;5617;54.046;10.676;2023-05-29T03:18:35;7.93;;;2.87;;
11125;SDS011;5617;54.046;10.676;2023-05-29T03:20:45;9.17;;;2.27;;
11125;SDS011;5617;54.046;10.676;2023-05-29T03:22:52;10.97;;;2.40;;
11125;SDS011;5617;54.046;10.676;2023-05-29T03:25:01;9.80;;;2.20;;
11125;SDS011;5617;54.046;10.676;2023-05-29T03:27:09;10.60;;;2.50;;
11125;SDS011;5617;54.046;10.676;2023-05-29T03:29:17;10.53;;;2.13;;
11125;SDS011;5617;54.046;10.676;2023-05-29T03:31:25;9.17;;;2.10;;
11125;SDS011;5617;54.046;10.676;2023-05-29T03:33:32;7.83;;;2.10;;
11125;SDS011;5617;54.046;10.676;2023-05-29T03:35:40;8.40;;;2.40;;
11125;SDS011;5617;54.046;10.676;2023-05-29T03:37:49;10.53;;;2.50;;
11125;SDS011;5617;54.046;10.676;2023-05-29T03:39:57;7.97;;;2.03;;
11125;SDS011;5617;54.046;10.676;2023-05-29T03:42:04;11.60;;;2.40;;
11125;SDS011;5617;54.046;10.676;2023-05-29T03:44:12;11.37;;;2.30;;
11125;SDS011;5617;54.046;10.676;2023-05-29T03:46:20;12.13;;;2.50;;
11125;SDS011;5617;54.046;10.676;2023-05-29T03:48:28;10.43;;;2.50;;
11125;SDS011;5617;54.046;10.676;2023-05-29T03:50:35;12.30;;;2.30;;
11125;SDS011;5617;54.046;10.676;2023-05-29T03:52:43;11.97;;;2.30;;
11125;SDS011;5617;54.046;10.676;2023-05-29T03:54:52;8.40;;;2.73;;
11125;SDS011;5617;54.046;10.676;2023-05-29T03:57:00;10.93;;;2.60;;
11125;SDS011;5617;54.046;10.676;2023-05-29T03:59:07;5.90;;;1.93;;
11125;SDS011;5617;54.046;10.676;2023-05-29T04:01:15;10.77;;;2.33;;
11125;SDS011;5617;54.046;10.676;2023-05-29T04:03:23;10.07;;;2.40;;
11125;SDS011;5617;54.046;10.676;2023-05-29T04:05:31;9.80;;;2.20;;
11125;SDS011;5617;54.046;10.676;2023-05-29T04:07:41;11.43;;;2.80;;
11125;SDS011;5617;54.046;10.676;2023-05-29T04:09:49;11.43;;;2.37;;
11125;SDS011;5617;54.046;10.676;2023-05-29T04:11:58;10.33;;;2.80;;
11125;SDS011;5617;54.046;10.676;2023-05-29T04:14:08;15.47;;;3.00;;
11125;SDS011;5617;54.046;10.676;2023-05-29T04:16:16;16.80;;;2.80;;
11125;SDS011;5617;54.046;10.676;2023-05-29T04:18:23;10.50;;;2.50;;
11125;SDS011;5617;54.046;10.676;2023-05-29T04:20:31;10.70;;;2.30;;
11125;SDS011;5617;54.046;10.676;2023-05-29T04:22:39;13.13;;;2.90;;
11125;SDS011;5617;54.046;10.676;2023-05-29T04:24:46;8.53;;;2.83;;
11125;SDS011;5617;54.046;10.676;2023-05-29T04:26:54;9.60;;;2.70;;
11125;SDS011;5617;54.046;10.676;2023-05-29T04:29:03;11.00;;;2.50;;
11125;SDS011;5617;54.046;10.676;2023-05-29T04:31:10;10.17;;;3.20;;
11125;SDS011;5617;54.046;10.676;2023-05-29T04:33:20;10.50;;;3.07;;
11125;SDS011;5617;54.046;10.676;2023-05-29T04:35:29;13.17;;;2.73;;
11125;SDS011;5617;54.046;10.676;2023-05-29T04:37:36;8.53;;;2.37;;
11125;SDS011;5617;54.046;10.676;2023-05-29T04:39:44;5.77;;;2.53;;
11125;SDS011;5617;54.046;10.676;2023-05-29T04:41:51;7.67;;;2.13;;
11125;SDS011;5617;54.046;10.676;2023-05-29T04:43:59;9.40;;;2.60;;
11125;SDS011;5617;54.046;10.676;2023-05-29T04:46:09;8.53;;;2.30;;
11125;SDS011;5617;54.046;10.676;2023-05-29T04:48:18;7.73;;;2.40;;
11125;SDS011;5617;54.046;10.676;2023-05-29T04:50:26;6.57;;;2.40;;
11125;SDS011;5617;54.046;10.676;2023-05-29T04:52:36;8.53;;;2.30;;
11125;SDS011;5617;54.046;10.676;2023-05-29T04:54:44;8.33;;;2.43;;
11125;SDS011;5617;54.046;10.676;2023-05-29T04:56:52;10.63;;;2.63;;
11125;SDS011;5617;54.046;10.676;2023-05-29T04:58:59;7.93;;;2.20;;
11125;SDS011;5617;54.046;10.676;2023-05-29T05:01:09;6.37;;;2.40;;
11125;SDS011;5617;54.046;10.676;2023-05-29T05:03:20;6.87;;;2.60;;
11125;SDS011;5617;54.046;10.676;2023-05-29T05:05:27;8.57;;;2.60;;
11125;SDS011;5617;54.046;10.676;2023-05-29T05:07:35;11.23;;;2.43;;
11125;SDS011;5617;54.046;10.676;2023-05-29T05:09:43;14.10;;;2.50;;
11125;SDS011;5617;54.046;10.676;2023-05-29T05:11:50;9.37;;;2.83;;
11125;SDS011;5617;54.046;10.676;2023-05-29T05:13:58;12.03;;;2.67;;
11125;SDS011;5617;54.046;10.676;2023-05-29T05:16:06;9.50;;;2.27;;
11125;SDS011;5617;54.046;10.676;2023-05-29T05:18:15;9.83;;;3.10;;
11125;SDS011;5617;54.046;10.676;2023-05-29T05:20:22;9.83;;;2.67;;
11125;SDS011;5617;54.046;10.676;2023-05-29T05:22:30;13.03;;;3.00;;
11125;SDS011;5617;54.046;10.676;2023-05-29T05:24:38;11.23;;;2.80;;
11125;SDS011;5617;54.046;10.676;2023-05-29T05:26:45;12.47;;;3.03;;
11125;SDS011;5617;54.046;10.676;2023-05-29T05:28:54;8.63;;;2.93;;
11125;SDS011;5617;54.046;10.676;2023-05-29T05:31:01;13.80;;;2.73;;
11125;SDS011;5617;54.046;10.676;2023-05-29T05:33:09;11.73;;;2.77;;
11125;SDS011;5617;54.046;10.676;2023-05-29T05:35:18;11.40;;;2.73;;
11125;SDS011;5617;54.046;10.676;2023-05-29T05:37:25;13.87;;;3.00;;
11125;SDS011;5617;54.046;10.676;2023-05-29T05:39:33;12.60;;;2.43;;
11125;SDS011;5617;54.046;10.676;2023-05-29T05:41:41;11.43;;;2.60;;
11125;SDS011;5617;54.046;10.676;2023-05-29T05:43:49;11.37;;;2.90;;
11125;SDS011;5617;54.046;10.676;2023-05-29T05:45:57;10.17;;;2.77;;
11125;SDS011;5617;54.046;10.676;2023-05-29T05:48:05;10.97;;;2.97;;
11125;SDS011;5617;54.046;10.676;2023-05-29T05:50:12;15.43;;;3.33;;
11125;SDS011;5617;54.046;10.676;2023-05-29T05:52:21;11.70;;;2.70;;
11125;SDS011;5617;54.046;10.676;2023-05-29T05:54:31;10.30;;;2.90;;
11125;SDS011;5617;54.046;10.676;2023-05-29T05:56:38;12.00;;;2.63;;
11125;SDS011;5617;54.046;10.676;2023-05-29T05:58:46;10.83;;;2.60;;
11125;SDS011;5617;54.046;10.676;2023-05-29T06:00:54;11.67;;;2.87;;
11125;SDS011;5617;54.046;10.676;2023-05-29T06:03:03;9.60;;;2.70;;
11125;SDS011;5617;54.046;10.676;2023-05-29T06:05:11;12.00;;;2.77;;
11125;SDS011;5617;54.046;10.676;2023-05-29T06:07:19;13.53;;;2.73;;
11125;SDS011;5617;54.046;10.676;2023-05-29T06:09:28;11.47;;;2.50;;
11125;SDS011;5617;54.046;10.676;2023-05-29T06:11:36;10.97;;;2.80;;
11125;SDS011;5617;54.046;10.676;2023-05-29T06:13:44;10.37;;;2.93;;
11125;SDS011;5617;54.046;10.676;2023-05-29T06:15:52;15.53;;;3.17;;
11125;SDS011;5617;54.046;10.676;2023-05-29T06:18:00;10.37;;;3.00;;
11125;SDS011;5617;54.046;10.676;2023-05-29T06:20:09;9.97;;;2.50;;
11125;SDS011;5617;54.046;10.676;2023-05-29T06:22:18;11.70;;;2.87;;
11125;SDS011;5617;54.046;10.676;2023-05-29T06:24:28;11.27;;;2.67;;
11125;SDS011;5617;54.046;10.676;2023-05-29T06:26:36;11.50;;;2.63;;
11125;SDS011;5617;54.046;10.676;2023-05-29T06:28:44;9.33;;;2.40;;
11125;SDS011;5617;54.046;10.676;2023-05-29T06:30:51;11.07;;;3.17;;
11125;SDS011;5617;54.046;10.676;2023-05-29T06:33:00;9.90;;;2.50;;
11125;SDS011;5617;54.046;10.676;2023-05-29T06:35:07;7.17;;;2.20;;
11125;SDS011;5617;54.046;10.676;2023-05-29T06:37:15;7.23;;;2.37;;
11125;SDS011;5617;54.046;10.676;2023-05-29T06:39:23;8.83;;;2.70;;
11125;SDS011;5617;54.046;10.676;2023-05-29T06:41:32;8.03;;;2.40;;
11125;SDS011;5617;54.046;10.676;2023-05-29T06:43:41;11.13;;;2.60;;
11125;SDS011;5617;54.046;10.676;2023-05-29T06:45:49;10.23;;;2.23;;
11125;SDS011;5617;54.046;10.676;2023-05-29T06:47:57;7.30;;;2.37;;
11125;SDS011;5617;54.046;10.676;2023-05-29T06:50:05;7.80;;;2.00;;
11125;SDS011;5617;54.046;10.676;2023-05-29T06:52:13;5.60;;;1.83;;
11125;SDS011;5617;54.046;10.676;2023-05-29T06:54:22;5.40;;;1.90;;
11125;SDS011;5617;54.046;10.676;2023-05-29T06:56:32;8.87;;;2.03;;
11125;SDS011;5617;54.046;10.676;2023-05-29T06:58:40;5.33;;;2.10;;
11125;SDS011;5617;54.046;10.676;2023-05-29T07:00:48;5.33;;;2.13;;
11125;SDS011;5617;54.046;10.676;2023-05-29T07:02:55;6.93;;;2.20;;
11125;SDS011;5617;54.046;10.676;2023-05-29T07:05:04;7.47;;;2.33;;
11125;SDS011;5617;54.046;10.676;2023-05-29T07:07:15;9.10;;;2.40;;
11125;SDS011;5617;54.046;10.676;2023-05-29T07:09:23;8.13;;;2.40;;
11125;SDS011;5617;54.046;10.676;2023-05-29T07:11:32;7.50;;;2.20;;
11125;SDS011;5617;54.046;10.676;2023-05-29T07:13:40;6.60;;;2.27;;
11125;SDS011;5617;54.046;10.676;2023-05-29T07:15:48;9.27;;;2.20;;
11125;SDS011;5617;54.046;10.676;2023-05-29T07:17:56;9.93;;;2.40;;
11125;SDS011;5617;54.046;10.676;2023-05-29T07:20:04;5.23;;;1.93;;
11125;SDS011;5617;54.046;10.676;2023-05-29T07:22:14;8.70;;;2.27;;
11125;SDS011;5617;54.046;10.676;2023-05-29T07:24:22;10.73;;;2.60;;
11125;SDS011;5617;54.046;10.676;2023-05-29T07:26:32;7.30;;;2.20;;
11125;SDS011;5617;54.046;10.676;2023-05-29T07:28:40;8.47;;;2.47;;
11125;SDS011;5617;54.046;10.676;2023-05-29T07:30:48;8.33;;;2.20;;
11125;SDS011;5617;54.046;10.676;2023-05-29T07:32:58;9.73;;;2.30;;
11125;SDS011;5617;54.046;10.676;2023-05-29T07:35:06;10.37;;;2.90;;
11125;SDS011;5617;54.046;10.676;2023-05-29T07:37:14;11.60;;;2.30;;
11125;SDS011;5617;54.046;10.676;2023-05-29T07:39:22;7.47;;;2.67;;
11125;SDS011;5617;54.046;10.676;2023-05-29T07:41:29;9.43;;;2.83;;
11125;SDS011;5617;54.046;10.676;2023-05-29T07:43:38;8.97;;;2.70;;
11125;SDS011;5617;54.046;10.676;2023-05-29T07:45:47;7.67;;;2.20;;
11125;SDS011;5617;54.046;10.676;2023-05-29T07:47:55;6.50;;;2.33;;
11125;SDS011;5617;54.046;10.676;2023-05-29T07:50:03;12.47;;;2.57;;
11125;SDS011;5617;54.046;10.676;2023-05-29T07:52:12;6.87;;;2.40;;
11125;SDS011;5617;54.046;10.676;2023-05-29T07:54:20;10.43;;;2.60;;
11125;SDS011;5617;54.046;10.676;2023-05-29T07:56:28;7.60;;;2.13;;
11125;SDS011;5617;54.046;10.676;2023-05-29T07:58:38;8.77;;;2.57;;
11125;SDS011;5617;54.046;10.676;2023-05-29T08:00:48;10.17;;;2.50;;
11125;SDS011;5617;54.046;10.676;2023-05-29T08:02:55;6.77;;;2.03;;
11125;SDS011;5617;54.046;10.676;2023-05-29T08:05:04;8.83;;;2.27;;
11125;SDS011;5617;54.046;10.676;2023-05-29T08:07:14;6.00;;;2.13;;
11125;SDS011;5617;54.046;10.676;2023-05-29T08:09:21;7.90;;;2.47;;
11125;SDS011;5617;54.046;10.676;2023-05-29T08:11:31;7.87;;;2.67;;
11125;SDS011;5617;54.046;10.676;2023-05-29T08:13:40;8.03;;;2.10;;
11125;SDS011;5617;54.046;10.676;2023-05-29T08:15:48;8.87;;;2.30;;
11125;SDS011;5617;54.046;10.676;2023-05-29T08:17:56;8.80;;;2.60;;
11125;SDS011;5617;54.046;10.676;2023-05-29T08:20:04;7.60;;;2.30;;
11125;SDS011;5617;54.046;10.676;2023-05-29T08:22:14;6.57;;;2.73;;
11125;SDS011;5617;54.046;10.676;2023-05-29T08:24:22;6.57;;;2.23;;
11125;SDS011;5617;54.046;10.676;2023-05-29T08:26:30;8.57;;;2.50;;
11125;SDS011;5617;54.046;10.676;2023-05-29T08:28:37;9.43;;;2.53;;
11125;SDS011;5617;54.046;10.676;2023-05-29T08:30:48;6.73;;;2.17;;
11125;SDS011;5617;54.046;10.676;2023-05-29T08:32:56;10.57;;;2.63;;
11125;SDS011;5617;54.046;10.676;2023-05-29T08:35:04;6.70;;;2.30;;
11125;SDS011;5617;54.046;10.676;2023-05-29T08:37:12;7.17;;;2.67;;
11125;SDS011;5617;54.046;10.676;2023-05-29T08:39:19;6.93;;;2.27;;
11125;SDS011;5617;54.046;10.676;2023-05-29T08:41:28;9.17;;;2.60;;
11125;SDS011;5617;54.046;10.676;2023-05-29T08:43:46;9.73;;;2.77;;
11125;SDS011;5617;54.046;10.676;2023-05-29T08:45:56;7.30;;;2.50;;
11125;SDS011;5617;54.046;10.676;2023-05-29T08:48:07;7.73;;;2.50;;
11125;SDS011;5617;54.046;10.676;2023-05-29T08:50:16;8.07;;;2.40;;
11125;SDS011;5617;54.046;10.676;2023-05-29T08:52:26;10.37;;;2.60;;
11125;SDS011;5617;54.046;10.676;2023-05-29T08:54:36;5.00;;;1.77;;
11125;SDS011;5617;54.046;10.676;2023-05-29T08:56:44;6.10;;;2.17;;
11125;SDS011;5617;54.046;10.676;2023-05-29T08:58:53;6.30;;;2.37;;
11125;SDS011;5617;54.046;10.676;2023-05-29T09:01:02;6.27;;;2.30;;
11125;SDS011;5617;54.046;10.676;2023-05-29T09:03:10;8.80;;;2.73;;
11125;SDS011;5617;54.046;10.676;2023-05-29T09:05:19;6.40;;;2.17;;
11125;SDS011;5617;54.046;10.676;2023-05-29T09:07:27;5.53;;;1.90;;
11125;SDS011;5617;54.046;10.676;2023-05-29T09:09:34;5.87;;;2.03;;
11125;SDS011;5617;54.046;10.676;2023-05-29T09:11:45;5.43;;;2.00;;
11125;SDS011;5617;54.046;10.676;2023-05-29T09:13:54;8.30;;;2.47;;
11125;SDS011;5617;54.046;10.676;2023-05-29T09:16:03;7.10;;;2.37;;
11125;SDS011;5617;54.046;10.676;2023-05-29T09:18:12;9.03;;;2.40;;
11125;SDS011;5617;54.046;10.676;2023-05-29T09:20:20;8.07;;;2.53;;
11125;SDS011;5617;54.046;10.676;2023-05-29T09:22:29;6.50;;;2.40;;
11125;SDS011;5617;54.046;10.676;2023-05-29T09:24:38;5.97;;;2.10;;
11125;SDS011;5617;54.046;10.676;2023-05-29T09:26:48;5.63;;;2.10;;
11125;SDS011;5617;54.046;10.676;2023-05-29T09:28:58;7.77;;;2.00;;
11125;SDS011;5617;54.046;10.676;2023-05-29T09:31:13;6.93;;;2.10;;
11125;SDS011;5617;54.046;10.676;2023-05-29T09:33:23;5.70;;;2.10;;
11125;SDS011;5617;54.046;10.676;2023-05-29T09:35:32;5.90;;;2.20;;
11125;SDS011;5617;54.046;10.676;2023-05-29T09:37:44;3.77;;;1.87;;
11125;SDS011;5617;54.046;10.676;2023-05-29T09:39:51;6.53;;;2.10;;
11125;SDS011;5617;54.046;10.676;2023-05-29T09:41:59;4.67;;;1.80;;
11125;SDS011;5617;54.046;10.676;2023-05-29T09:44:09;5.30;;;1.77;;
11125;SDS011;5617;54.046;10.676;2023-05-29T09:46:19;6.00;;;2.03;;
11125;SDS011;5617;54.046;10.676;2023-05-29T09:48:30;4.33;;;1.80;;
11125;SDS011;5617;54.046;10.676;2023-05-29T09:50:40;5.03;;;1.40;;
11125;SDS011;5617;54.046;10.676;2023-05-29T09:52:50;6.70;;;1.87;;
11125;SDS011;5617;54.046;10.676;2023-05-29T09:54:59;4.60;;;1.50;;
11125;SDS011;5617;54.046;10.676;2023-05-29T09:57:08;4.27;;;1.60;;
11125;SDS011;5617;54.046;10.676;2023-05-29T09:59:20;3.37;;;1.43;;
11125;SDS011;5617;54.046;10.676;2023-05-29T10:01:31;4.47;;;1.67;;
11125;SDS011;5617;54.046;10.676;2023-05-29T10:03:39;2.63;;;1.53;;
11125;SDS011;5617;54.046;10.676;2023-05-29T10:05:49;3.53;;;1.50;;
11125;SDS011;5617;54.046;10.676;2023-05-29T10:07:58;3.63;;;1.27;;
11125;SDS011;5617;54.046;10.676;2023-05-29T10:10:08;4.03;;;1.40;;
11125;SDS011;5617;54.046;10.676;2023-05-29T10:12:19;3.30;;;1.40;;
11125;SDS011;5617;54.046;10.676;2023-05-29T10:14:28;4.60;;;1.60;;
11125;SDS011;5617;54.046;10.676;2023-05-29T10:16:40;2.27;;;1.20;;
11125;SDS011;5617;54.046;10.676;2023-05-29T10:18:50;3.37;;;1.40;;
11125;SDS011;5617;54.046;10.676;2023-05-29T10:21:02;3.67;;;1.63;;
11125;SDS011;5617;54.046;10.676;2023-05-29T10:23:10;4.53;;;1.50;;
11125;SDS011;5617;54.046;10.676;2023-05-29T10:25:19;4.43;;;1.73;;
11125;SDS011;5617;54.046;10.676;2023-05-29T10:27:28;3.10;;;1.50;;
11125;SDS011;5617;54.046;10.676;2023-05-29T10:29:39;3.60;;;1.40;;
11125;SDS011;5617;54.046;10.676;2023-05-29T10:31:59;3.87;;;1.20;;
11125;SDS011;5617;54.046;10.676;2023-05-29T10:34:14;3.33;;;1.50;;
11125;SDS011;5617;54.046;10.676;2023-05-29T10:36:34;3.07;;;1.60;;
11125;SDS011;5617;54.046;10.676;2023-05-29T10:38:46;3.10;;;1.67;;
11125;SDS011;5617;54.046;10.676;2023-05-29T10:40:54;4.10;;;1.50;;
11125;SDS011;5617;54.046;10.676;2023-05-29T10:43:02;4.50;;;1.47;;
11125;SDS011;5617;54.046;10.676;2023-05-29T10:45:12;3.43;;;1.70;;
11125;SDS011;5617;54.046;10.676;2023-05-29T10:50:46;2.40;;;1.23;;
11125;SDS011;5617;54.046;10.676;2023-05-29T10:52:56;4.10;;;1.37;;
11125;SDS011;5617;54.046;10.676;2023-05-29T10:55:04;3.60;;;1.30;;
11125;SDS011;5617;54.046;10.676;2023-05-29T10:57:12;2.77;;;1.43;;
11125;SDS011;5617;54.046;10.676;2023-05-29T10:59:19;3.03;;;1.40;;
11125;SDS011;5617;54.046;10.676;2023-05-29T11:01:29;4.57;;;1.50;;
11125;SDS011;5617;54.046;10.676;2023-05-29T11:03:37;2.83;;;1.43;;
11125;SDS011;5617;54.046;10.676;2023-05-29T11:05:55;3.10;;;1.70;;
11125;SDS011;5617;54.046;10.676;2023-05-29T11:08:03;2.90;;;1.27;;
11125;SDS011;5617;54.046;10.676;2023-05-29T11:10:12;4.43;;;1.60;;
11125;SDS011;5617;54.046;10.676;2023-05-29T11:12:21;2.47;;;1.40;;
11125;SDS011;5617;54.046;10.676;2023-05-29T11:14:45;4.70;;;1.50;;
11125;SDS011;5617;54.046;10.676;2023-05-29T11:16:55;3.70;;;1.43;;
11125;SDS011;5617;54.046;10.676;2023-05-29T11:19:05;2.63;;;1.40;;
11125;SDS011;5617;54.046;10.676;2023-05-29T11:21:22;4.23;;;1.70;;
11125;SDS011;5617;54.046;10.676;2023-05-29T11:23:35;2.97;;;1.60;;
11125;SDS011;5617;54.046;10.676;2023-05-29T11:25:48;3.53;;;1.53;;
11125;SDS011;5617;54.046;10.676;2023-05-29T11:27:56;4.27;;;1.50;;
11125;SDS011;5617;54.046;10.676;2023-05-29T11:30:04;4.17;;;1.30;;
11125;SDS011;5617;54.046;10.676;2023-05-29T11:32:16;2.83;;;1.40;;
11125;SDS011;5617;54.046;10.676;2023-05-29T11:34:24;3.13;;;1.40;;
11125;SDS011;5617;54.046;10.676;2023-05-29T11:36:36;3.00;;;1.60;;
11125;SDS011;5617;54.046;10.676;2023-05-29T11:38:44;4.10;;;1.50;;
11125;SDS011;5617;54.046;10.676;2023-05-29T11:40:52;3.50;;;1.50;;
11125;SDS011;5617;54.046;10.676;2023-05-29T11:43:01;3.93;;;1.43;;
11125;SDS011;5617;54.046;10.676;2023-05-29T11:45:09;3.43;;;1.47;;
11125;SDS011;5617;54.046;10.676;2023-05-29T11:47:22;2.57;;;1.40;;
11125;SDS011;5617;54.046;10.676;2023-05-29T11:49:30;3.87;;;1.50;;
11125;SDS011;5617;54.046;10.676;2023-05-29T11:51:41;3.40;;;1.30;;
11125;SDS011;5617;54.046;10.676;2023-05-29T11:53:50;3.30;;;1.20;;
11125;SDS011;5617;54.046;10.676;2023-05-29T11:56:07;3.30;;;1.37;;
11125;SDS011;5617;54.046;10.676;2023-05-29T11:58:16;3.47;;;1.40;;
11125;SDS011;5617;54.046;10.676;2023-05-29T12:00:24;2.50;;;1.27;;
11125;SDS011;5617;54.046;10.676;2023-05-29T12:02:33;4.30;;;1.50;;
11125;SDS011;5617;54.046;10.676;2023-05-29T12:04:42;4.10;;;1.50;;
11125;SDS011;5617;54.046;10.676;2023-05-29T12:06:50;3.73;;;1.50;;
11125;SDS011;5617;54.046;10.676;2023-05-29T12:08:58;3.37;;;1.40;;
11125;SDS011;5617;54.046;10.676;2023-05-29T12:11:07;2.13;;;1.20;;
11125;SDS011;5617;54.046;10.676;2023-05-29T12:13:16;3.43;;;1.70;;
11125;SDS011;5617;54.046;10.676;2023-05-29T12:15:26;5.33;;;1.47;;
11125;SDS011;5617;54.046;10.676;2023-05-29T12:17:35;2.87;;;1.30;;
11125;SDS011;5617;54.046;10.676;2023-05-29T12:19:43;4.03;;;1.53;;
11125;SDS011;5617;54.046;10.676;2023-05-29T12:21:51;3.30;;;1.63;;
11125;SDS011;5617;54.046;10.676;2023-05-29T12:23:58;3.17;;;1.40;;
11125;SDS011;5617;54.046;10.676;2023-05-29T12:26:10;2.93;;;1.37;;
11125;SDS011;5617;54.046;10.676;2023-05-29T12:28:18;3.40;;;1.20;;
11125;SDS011;5617;54.046;10.676;2023-05-29T12:30:27;2.30;;;1.20;;
11125;SDS011;5617;54.046;10.676;2023-05-29T12:32:42;2.40;;;1.20;;
11125;SDS011;5617;54.046;10.676;2023-05-29T12:34:51;2.73;;;1.40;;
11125;SDS011;5617;54.046;10.676;2023-05-29T12:37:03;3.47;;;1.50;;
11125;SDS011;5617;54.046;10.676;2023-05-29T12:39:18;1.83;;;1.10;;
11125;SDS011;5617;54.046;10.676;2023-05-29T12:41:26;3.77;;;1.50;;
11125;SDS011;5617;54.046;10.676;2023-05-29T12:43:35;2.70;;;1.40;;
11125;SDS011;5617;54.046;10.676;2023-05-29T12:45:42;2.27;;;1.37;;
11125;SDS011;5617;54.046;10.676;2023-05-29T12:47:52;2.83;;;1.20;;
11125;SDS011;5617;54.046;10.676;2023-05-29T12:50:04;2.70;;;1.30;;
11125;SDS011;5617;54.046;10.676;2023-05-29T12:52:25;2.57;;;1.40;;
11125;SDS011;5617;54.046;10.676;2023-05-29T12:54:33;2.30;;;1.17;;
11125;SDS011;5617;54.046;10.676;2023-05-29T12:56:41;2.00;;;1.20;;
11125;SDS011;5617;54.046;10.676;2023-05-29T12:58:50;3.37;;;1.40;;
11125;SDS011;5617;54.046;10.676;2023-05-29T13:00:58;3.40;;;1.50;;
11125;SDS011;5617;54.046;10.676;2023-05-29T13:03:07;2.30;;;1.20;;